Time;durP1;ratioP1;P1;durP2;ratioP2;P2;SDS_P1;SDS_P2;PMS_P1;PMS_P2;Temp;Humidity;BMP_temperature;BMP_pressure;BME280_temperature;BME280_humidity;BME280_pressure;Samples;Min_cycle;Max_cycle;Signal;HPM_P1;HPM_P2
2021/07/27 00:00:39;;;;;;;34.75;20.05;;;;;;;19.32;85.45;94790.05;1603034;88;21091;-53
2021/07/27 00:03:06;;;;;;;31.97;18.70;;;;;;;19.27;85.43;94786.62;1571253;90;21034;-55
2021/07/27 00:05:33;;;;;;;36.60;22.00;;;;;;;19.25;85.60;94782.17;1588347;89;21057;-54
2021/07/27 00:08:02;;;;;;;35.98;21.55;;;;;;;19.26;85.94;94780.91;1584882;89;21037;-54
2021/07/27 00:10:29;;;;;;;30.00;20.17;;;;;;;19.29;85.99;94784.70;1608966;88;21108;-54
2021/07/27 00:12:55;;;;;;;41.73;21.77;;;;;;;19.26;85.95;94780.91;1600665;89;21466;-55
2021/07/27 00:15:22;;;;;;;32.95;19.20;;;;;;;19.25;85.90;94782.17;1585005;90;21189;-55
2021/07/27 00:17:49;;;;;;;35.35;20.60;;;;;;;19.23;85.85;94777.70;1600031;88;21106;-55
2021/07/27 00:20:17;;;;;;;38.85;21.37;;;;;;;19.21;86.09;94773.27;1598688;89;21160;-55
2021/07/27 00:22:44;;;;;;;37.88;22.37;;;;;;;19.26;86.11;94780.91;1589475;89;20991;-55
2021/07/27 00:25:14;;;;;;;37.15;23.18;;;;;;;19.29;85.86;94774.32;1598598;89;21062;-55
2021/07/27 00:27:42;;;;;;;40.10;22.15;;;;;;;19.27;85.87;94783.05;1598526;89;21005;-55
2021/07/27 00:30:12;;;;;;;32.80;20.30;;;;;;;19.28;85.78;94787.36;1589515;89;21157;-55
2021/07/27 00:32:40;;;;;;;41.33;21.05;;;;;;;19.24;86.01;94780.65;1590640;87;21469;-54
2021/07/27 00:35:09;;;;;;;40.45;21.68;;;;;;;19.21;86.18;94775.30;1591367;88;21000;-54
2021/07/27 00:37:37;;;;;;;35.65;22.30;;;;;;;19.17;86.49;94776.93;1590180;89;21145;-54
2021/07/27 00:40:06;;;;;;;40.40;22.80;;;;;;;19.12;86.66;94776.25;1593495;88;21136;-55
2021/07/27 00:42:42;;;;;;;35.95;21.07;;;;;;;19.09;87.01;94768.89;1599751;88;21182;-54
2021/07/27 00:45:11;;;;;;;43.95;21.95;;;;;;;19.09;87.21;94766.11;1582186;89;21827;-54
2021/07/27 00:47:38;;;;;;;43.20;23.00;;;;;;;19.11;87.31;94776.75;1589703;89;20983;-55
2021/07/27 00:50:07;;;;;;;40.48;22.67;;;;;;;19.11;87.24;94773.95;1592574;88;21513;-55
2021/07/27 00:52:38;;;;;;;41.28;20.88;;;;;;;19.09;87.33;94777.88;1578966;89;20962;-56
2021/07/27 00:55:06;;;;;;;36.10;19.32;;;;;;;19.08;87.40;94777.75;1609869;88;21580;-55
2021/07/27 00:57:33;;;;;;;26.65;17.70;;;;;;;19.04;87.37;94768.22;1602814;89;21815;-54
2021/07/27 01:00:04;;;;;;;41.80;19.75;;;;;;;19.03;87.50;94756.94;1595448;88;21108;-53
2021/07/27 01:02:32;;;;;;;31.07;19.00;;;;;;;19.05;87.49;94755.80;1592564;88;21054;-54
2021/07/27 01:04:59;;;;;;;43.25;20.08;;;;;;;19.09;87.71;94763.31;1603108;88;21093;-55
2021/07/27 01:07:26;;;;;;;43.70;21.27;;;;;;;19.11;87.52;94775.35;1584887;89;21712;-54
2021/07/27 01:09:52;;;;;;;42.58;21.12;;;;;;;19.12;87.39;94771.30;1607390;88;21111;-55
2021/07/27 01:12:19;;;;;;;32.28;18.82;;;;;;;19.12;87.35;94772.69;1610661;87;21077;-55
2021/07/27 01:14:48;;;;;;;44.67;23.38;;;;;;;19.12;87.42;94781.83;1609605;88;20959;-55
2021/07/27 01:17:15;;;;;;;45.33;21.95;;;;;;;19.11;87.40;94780.31;1585061;89;20997;-54
2021/07/27 01:19:59;;;;;;;39.15;19.92;;;;;;;19.09;87.56;94771.69;1603705;89;21081;-56
2021/07/27 01:43:59;;;;;;;29.87;19.48;;;;;;;19.03;88.74;94773.67;1609596;87;21052;-55
2021/07/27 01:46:26;;;;;;;30.77;18.73;;;;;;;18.99;88.88;94777.98;1589353;89;21007;-54
2021/07/27 01:48:53;;;;;;;30.32;16.95;;;;;;;19.02;89.08;94774.19;1592206;89;21147;-55
2021/07/27 01:51:22;;;;;;;30.12;17.23;;;;;;;19.05;89.10;94773.19;1591879;88;20985;-54
2021/07/27 01:53:56;;;;;;;26.73;17.23;;;;;;;19.09;89.12;94776.48;1605137;88;21500;-54
2021/07/27 01:56:23;;;;;;;32.08;18.37;;;;;;;19.11;89.10;94776.75;1606818;88;21009;-54
2021/07/27 01:58:50;;;;;;;30.15;18.30;;;;;;;19.10;89.19;94770.42;1587804;89;21081;-57
2021/07/27 02:01:19;;;;;;;34.92;18.62;;;;;;;19.11;89.22;94773.34;1594547;89;21188;-54
2021/07/27 02:03:46;;;;;;;32.25;18.17;;;;;;;19.15;89.15;94780.08;1587678;89;21080;-54
2021/07/27 02:06:17;;;;;;;31.35;19.15;;;;;;;19.16;88.93;94774.02;1631754;87;21006;-54
2021/07/27 02:08:47;;;;;;;30.92;19.65;;;;;;;19.18;88.91;94779.84;1607792;88;20989;-54
2021/07/27 02:11:17;;;;;;;30.27;19.82;;;;;;;19.15;88.82;94784.27;1601581;88;21013;-54
2021/07/27 02:13:53;;;;;;;29.82;18.80;;;;;;;19.07;88.98;94779.80;1639361;86;21168;-54
2021/07/27 02:16:20;;;;;;;23.98;17.73;;;;;;;18.99;89.22;94775.20;1639707;87;21010;-53
2021/07/27 02:18:47;;;;;;;28.25;18.95;;;;;;;18.94;89.69;94776.69;1639829;87;20982;-55
2021/07/27 02:21:13;;;;;;;34.10;20.05;;;;;;;18.95;89.87;94783.02;1604611;88;21042;-55
2021/07/27 02:23:41;;;;;;;28.98;18.82;;;;;;;18.95;89.88;94781.00;1603362;88;21012;-56
2021/07/27 02:26:08;;;;;;;24.80;17.62;;;;;;;18.93;89.89;94776.55;1609977;88;21518;-55
2021/07/27 02:28:35;;;;;;;32.03;18.23;;;;;;;18.93;89.92;94775.16;1610952;88;21620;-55
2021/07/27 02:31:05;;;;;;;25.55;18.20;;;;;;;18.96;90.01;94773.37;1595242;89;21114;-54
2021/07/27 02:33:39;;;;;;;28.25;18.57;;;;;;;18.98;89.79;94774.41;1591385;89;21539;-54
2021/07/27 02:36:04;;;;;;;27.73;18.60;;;;;;;18.96;89.78;94774.16;1597779;89;21037;-54
2021/07/27 02:38:31;;;;;;;27.85;17.75;;;;;;;18.98;89.81;94771.63;1585057;89;21161;-53
2021/07/27 02:40:57;;;;;;;28.17;19.62;;;;;;;19.01;89.54;94776.84;1605334;88;21426;-55
2021/07/27 02:43:24;;;;;;;31.33;19.17;;;;;;;18.99;89.74;94777.34;1595557;88;21569;-54
2021/07/27 02:45:51;;;;;;;30.27;19.05;;;;;;;18.98;89.61;94775.81;1581666;89;21093;-54
2021/07/27 02:48:17;;;;;;;25.95;19.48;;;;;;;18.88;89.75;94771.73;1586700;89;21456;-56
2021/07/27 02:50:47;;;;;;;33.90;19.65;;;;;;;18.80;90.03;94774.09;1610431;88;21425;-55
2021/07/27 02:53:15;;;;;;;24.80;17.05;;;;;;;18.75;90.33;94778.98;1600357;89;21045;-54
2021/07/27 02:55:42;;;;;;;35.60;19.73;;;;;;;18.72;90.64;94778.59;1593028;89;21108;-55
2021/07/27 02:58:18;;;;;;;27.67;20.80;;;;;;;18.71;90.89;94782.03;1600253;88;21596;-55
2021/07/27 03:00:45;;;;;;;27.48;17.90;;;;;;;18.72;91.00;94786.34;1585185;90;21010;-54
2021/07/27 03:03:12;;;;;;;30.48;18.92;;;;;;;18.73;90.95;94787.87;1608247;88;21159;-54
2021/07/27 03:05:39;;;;;;;26.45;18.35;;;;;;;18.70;90.75;94786.08;1600216;89;21109;-55
2021/07/27 03:08:10;;;;;;;31.45;20.65;;;;;;;18.63;91.08;94786.53;1602764;88;20974;-55
2021/07/27 03:10:35;;;;;;;40.05;21.00;;;;;;;18.57;91.50;94790.54;1602075;88;21025;-55
2021/07/27 03:13:02;;;;;;;27.58;19.02;;;;;;;18.50;91.95;94782.01;1585078;90;21107;-55
2021/07/27 03:15:29;;;;;;;29.92;18.35;;;;;;;18.46;92.23;94782.88;1599182;89;21178;-55
2021/07/27 03:17:59;;;;;;;30.85;17.23;;;;;;;18.39;92.47;94777.77;1584994;89;20983;-52
2021/07/27 03:20:28;;;;;;;26.27;15.80;;;;;;;18.36;92.62;94771.81;1602027;89;21120;-54
2021/07/27 03:22:56;;;;;;;25.60;16.05;;;;;;;18.35;92.89;94779.25;1589545;90;21156;-56
2021/07/27 03:25:23;;;;;;;25.95;15.25;;;;;;;18.31;92.99;94778.08;1589681;90;21031;-55
2021/07/27 03:27:51;;;;;;;24.60;16.93;;;;;;;18.33;93.28;94770.63;1591111;88;21164;-55
2021/07/27 03:30:22;;;;;;;29.57;18.05;;;;;;;18.36;93.35;94778.00;1570524;90;20991;-56
2021/07/27 03:32:49;;;;;;;31.25;17.23;;;;;;;18.37;93.35;94784.48;1589699;89;21003;-62
2021/07/27 03:35:19;;;;;;;24.98;15.95;;;;;;;18.40;93.44;94790.44;1591856;89;21003;-57
2021/07/27 03:37:46;;;;;;;23.65;16.12;;;;;;;18.46;93.29;94784.91;1602987;88;20993;-56
2021/07/27 03:40:14;;;;;;;30.23;17.07;;;;;;;18.47;93.10;94784.40;1603158;88;21868;-57
2021/07/27 03:42:42;;;;;;;30.17;18.55;;;;;;;18.50;93.01;94784.05;1589704;89;21514;-56
2021/07/27 03:45:11;;;;;;;26.10;19.02;;;;;;;18.53;92.71;94799.15;1598644;89;21656;-56
2021/07/27 03:47:38;;;;;;;31.62;18.02;;;;;;;18.60;92.82;94806.26;1589513;89;21011;-54
2021/07/27 03:50:08;;;;;;;29.63;16.60;;;;;;;18.67;92.54;94800.98;1598824;88;21081;-51
2021/07/27 03:52:35;;;;;;;25.88;15.38;;;;;;;18.75;92.43;94797.88;1598495;89;21145;-54
2021/07/27 03:55:03;;;;;;;26.60;17.62;;;;;;;18.84;92.20;94797.66;1600612;89;21080;-55
2021/07/27 03:57:30;;;;;;;33.80;20.40;;;;;;;18.85;91.63;94799.19;1599916;88;21041;-55
2021/07/27 03:59:57;;;;;;;30.25;19.77;;;;;;;18.83;91.50;94795.39;1589633;89;21030;-54
2021/07/27 04:02:25;;;;;;;38.90;19.87;;;;;;;18.83;91.42;94804.50;1603168;88;21062;-55
2021/07/27 04:04:53;;;;;;;32.03;19.95;;;;;;;18.88;91.40;94801.00;1585217;89;21244;-55
2021/07/27 04:07:20;;;;;;;37.73;20.88;;;;;;;18.91;91.22;94796.44;1609810;88;21492;-54
2021/07/27 04:09:47;;;;;;;37.00;22.25;;;;;;;18.93;91.04;94799.48;1606744;88;21065;-55
2021/07/27 04:12:15;;;;;;;36.70;21.37;;;;;;;18.97;90.97;94796.59;1598648;89;20986;-55
2021/07/27 04:14:42;;;;;;;24.50;18.07;;;;;;;18.98;90.81;94805.09;1584960;90;21107;-56
2021/07/27 04:17:10;;;;;;;29.50;18.30;;;;;;;19.02;90.50;94808.40;1599099;89;21263;-55
2021/07/27 04:19:37;;;;;;;30.15;19.67;;;;;;;18.99;90.20;94801.03;1592441;89;21486;-55
2021/07/27 04:22:04;;;;;;;32.08;19.98;;;;;;;18.99;90.35;94796.11;1591682;89;21003;-55
2021/07/27 04:24:30;;;;;;;28.27;19.60;;;;;;;19.00;90.29;94803.21;1598575;89;21042;-54
2021/07/27 04:26:57;;;;;;;26.60;17.52;;;;;;;19.06;90.35;94801.98;1591023;89;21420;-55
2021/07/27 04:29:24;;;;;;;28.95;17.10;;;;;;;19.12;90.09;94795.78;1604027;88;21164;-54
2021/07/27 04:31:52;;;;;;;30.48;17.82;;;;;;;19.19;89.79;94798.75;1580786;89;21081;-55
2021/07/27 04:34:18;;;;;;;29.40;18.87;;;;;;;19.23;89.64;94791.66;1603148;88;20989;-54
2021/07/27 04:36:50;;;;;;;31.55;18.35;;;;;;;19.29;89.53;94794.47;1604599;88;21469;-54
2021/07/27 04:39:17;;;;;;;24.52;18.07;;;;;;;19.37;89.08;94793.48;1598780;89;21034;-55
2021/07/27 04:41:45;;;;;;;27.35;18.37;;;;;;;19.40;88.85;94788.94;1574502;90;21112;-55
2021/07/27 04:44:12;;;;;;;31.90;17.92;;;;;;;19.45;88.58;94791.74;1594015;89;21135;-54
2021/07/27 04:46:39;;;;;;;32.60;19.57;;;;;;;19.46;88.38;94791.88;1606195;88;21095;-55
2021/07/27 04:49:06;;;;;;;24.85;17.25;;;;;;;19.48;88.39;94792.12;1594788;88;21049;-53
2021/07/27 04:51:32;;;;;;;26.82;17.05;;;;;;;19.50;88.43;94789.59;1591865;87;21551;-55
2021/07/27 04:54:03;;;;;;;25.88;16.80;;;;;;;19.50;88.42;94786.80;1598489;89;21151;-55
2021/07/27 04:56:33;;;;;;;28.40;16.25;;;;;;;19.49;88.36;94790.86;1589336;89;21546;-54
2021/07/27 04:59:00;;;;;;;29.23;16.90;;;;;;;19.52;88.40;94789.84;1607607;88;21143;-54
2021/07/27 05:01:27;;;;;;;30.23;17.95;;;;;;;19.57;87.95;94782.77;1607361;87;21054;-54
2021/07/27 05:03:56;;;;;;;27.77;16.82;;;;;;;19.57;87.80;94779.33;1607685;88;20992;-55
2021/07/27 05:06:27;;;;;;;23.75;17.62;;;;;;;19.56;87.75;94784.78;1584801;89;39245;-55
2021/07/27 05:08:55;;;;;;;26.10;17.98;;;;;;;19.55;87.82;94779.06;1603722;88;21021;-55
2021/07/27 05:11:25;;;;;;;31.70;19.87;;;;;;;19.56;88.01;94788.97;1599563;89;21033;-54
2021/07/27 05:13:53;;;;;;;33.60;21.42;;;;;;;19.55;88.05;94797.21;1590996;89;21655;-54
2021/07/27 05:16:22;;;;;;;36.73;23.42;;;;;;;19.52;88.41;94801.02;1590025;88;21081;-55
2021/07/27 05:19:03;;;;;;;34.03;23.02;;;;;;;19.54;88.54;94794.94;1589497;90;21240;-55
2021/07/27 05:21:31;;;;;;;34.83;23.65;;;;;;;19.55;88.73;94797.21;1598862;89;21009;-56
2021/07/27 05:23:59;;;;;;;35.20;25.88;;;;;;;19.58;88.89;94793.41;1570967;89;21128;-54
2021/07/27 05:26:25;;;;;;;32.83;21.85;;;;;;;19.62;88.75;94795.34;1597775;88;21037;-55
2021/07/27 05:28:53;;;;;;;30.50;20.40;;;;;;;19.68;88.38;94797.50;1606898;88;21628;-55
2021/07/27 05:31:20;;;;;;;32.33;20.08;;;;;;;19.70;88.13;94793.57;1637622;87;21129;-54
2021/07/27 05:33:46;;;;;;;32.10;20.70;;;;;;;19.71;87.90;94792.30;1599825;88;21474;-57
2021/07/27 05:36:13;;;;;;;22.93;17.30;;;;;;;19.74;87.70;94793.33;1599618;88;21611;-56
2021/07/27 05:38:40;;;;;;;32.30;20.25;;;;;;;19.77;87.34;94793.06;1598656;89;21045;-55
2021/07/27 05:41:06;;;;;;;30.23;18.90;;;;;;;19.84;87.38;94795.37;1598684;89;20982;-55
2021/07/27 05:43:34;;;;;;;38.63;19.75;;;;;;;19.94;87.34;94793.84;1586854;89;21166;-55
2021/07/27 05:46:03;;;;;;;27.32;17.37;;;;;;;20.07;86.73;94802.53;1624607;86;21503;-57
2021/07/27 05:48:32;;;;;;;28.47;18.23;;;;;;;20.19;86.25;94806.22;1643891;85;21012;-66
2021/07/27 05:50:59;;;;;;;24.27;17.12;;;;;;;20.27;85.42;94805.08;1618852;87;21085;-57
2021/07/27 05:53:26;;;;;;;27.58;19.17;;;;;;;20.31;85.44;94806.97;1618271;85;21097;-60
2021/07/27 05:55:53;;;;;;;34.65;20.82;;;;;;;20.38;85.17;94801.63;1625524;86;21193;-57
2021/07/27 05:58:20;;;;;;;26.27;19.73;;;;;;;20.45;84.80;94805.95;1648601;85;21033;-52
2021/07/27 06:00:48;;;;;;;32.88;19.42;;;;;;;20.49;84.67;94804.43;1677955;84;21092;-59
2021/07/27 06:03:15;;;;;;;29.63;18.02;;;;;;;20.54;84.47;94800.11;1653107;85;22127;-63
2021/07/27 06:05:42;;;;;;;29.63;17.20;;;;;;;20.56;84.19;94803.16;1663618;84;21113;-66
2021/07/27 06:08:09;;;;;;;24.40;17.67;;;;;;;20.56;84.07;94793.38;1664611;84;21133;-58
2021/07/27 06:10:37;;;;;;;32.17;19.15;;;;;;;20.56;84.18;94792.72;1664921;84;21134;-58
2021/07/27 06:13:04;;;;;;;29.95;18.17;;;;;;;20.65;84.10;94800.08;1671893;84;21008;-68
2021/07/27 06:15:32;;;;;;;32.65;17.98;;;;;;;20.75;83.73;94792.95;1665828;84;22174;-65
2021/07/27 06:17:59;;;;;;;23.02;16.40;;;;;;;20.88;83.19;94798.78;1667988;84;21103;-60
2021/07/27 06:20:26;;;;;;;29.25;17.17;;;;;;;21.04;82.73;94797.98;1660455;84;21130;-61
2021/07/27 06:22:53;;;;;;;24.23;17.17;;;;;;;21.17;82.26;94791.20;1667418;84;21477;-62
2021/07/27 06:25:20;;;;;;;34.90;18.00;;;;;;;21.32;81.77;94797.25;1672831;84;21057;-60
2021/07/27 06:27:47;;;;;;;25.02;16.55;;;;;;;21.48;81.18;94785.22;1662783;84;21101;-58
2021/07/27 06:30:15;;;;;;;26.75;18.65;;;;;;;21.61;79.87;94788.19;1674965;84;21047;-59
2021/07/27 06:32:42;;;;;;;28.87;17.60;;;;;;;21.64;79.03;94782.34;1660795;84;22276;-60
2021/07/27 06:35:11;;;;;;;28.27;19.32;;;;;;;21.65;78.95;94773.32;1665303;84;21028;-59
2021/07/27 06:37:37;;;;;;;25.05;18.20;;;;;;;21.68;79.07;94772.28;1662456;84;21204;-59
2021/07/27 06:40:06;;;;;;;32.00;19.50;;;;;;;21.72;79.09;94782.56;1663468;83;21521;-63
2021/07/27 06:42:33;;;;;;;31.10;20.10;;;;;;;21.74;79.00;94786.38;1669458;84;21097;-61
2021/07/27 06:45:01;;;;;;;37.83;23.27;;;;;;;21.80;78.92;94786.34;1630311;84;21919;-67
2021/07/27 06:47:27;;;;;;;31.12;20.02;;;;;;;21.83;78.57;94784.65;1670143;84;21456;-68
2021/07/27 06:49:54;;;;;;;37.03;19.85;;;;;;;21.90;78.69;94778.51;1681117;84;21033;-58
2021/07/27 06:52:23;;;;;;;27.05;19.12;;;;;;;22.01;78.37;94782.62;1684197;84;21536;-63
2021/07/27 06:54:50;;;;;;;21.85;18.00;;;;;;;22.05;77.76;94776.86;1678611;84;21054;-59
2021/07/27 06:57:17;;;;;;;29.85;17.98;;;;;;;22.09;77.24;94782.94;1677722;84;21125;-55
2021/07/27 06:59:44;;;;;;;20.23;16.12;;;;;;;22.12;77.53;94779.09;1677395;84;21063;-61
2021/07/27 07:02:11;;;;;;;23.32;15.88;;;;;;;22.19;77.71;94777.77;1679041;84;21104;-56
2021/07/27 07:04:38;;;;;;;24.90;17.52;;;;;;;22.32;77.50;94789.14;1668785;84;21216;-58
2021/07/27 07:07:08;;;;;;;26.52;18.45;;;;;;;22.44;77.45;94783.59;1659849;84;22324;-62
2021/07/27 07:09:35;;;;;;;34.55;18.37;;;;;;;22.56;77.61;94786.40;1666628;84;21155;-60
2021/07/27 07:12:13;;;;;;;27.58;16.42;;;;;;;22.74;77.44;94783.69;1656343;84;21972;-60
2021/07/27 07:14:40;;;;;;;23.83;16.90;;;;;;;22.93;76.83;94778.89;1677566;83;21064;-61
2021/07/27 07:17:09;;;;;;;26.07;18.60;;;;;;;23.14;76.27;94777.15;1684620;84;21014;-60
2021/07/27 07:19:36;;;;;;;25.40;16.48;;;;;;;23.35;75.84;94775.36;1681336;84;21571;-62
2021/07/27 07:22:04;;;;;;;23.57;15.15;;;;;;;23.57;74.93;94772.26;1685840;84;21154;-64
2021/07/27 07:24:32;;;;;;;25.60;14.30;;;;;;;23.73;73.90;94772.69;1676936;83;21092;-61
2021/07/27 07:26:59;;;;;;;18.67;14.10;;;;;;;23.82;72.22;94765.32;1663291;84;21034;-60
2021/07/27 07:29:26;;;;;;;22.48;13.40;;;;;;;23.89;72.26;94763.29;1650410;84;21005;-65
2021/07/27 07:31:52;;;;;;;15.58;12.47;;;;;;;24.02;71.93;94761.29;1671686;84;21051;-62
2021/07/27 07:34:19;;;;;;;23.25;14.47;;;;;;;24.21;71.39;94751.42;1665891;84;21138;-59
2021/07/27 07:36:46;;;;;;;26.35;15.78;;;;;;;24.33;70.89;94749.93;1667268;84;21121;-61
2021/07/27 07:39:14;;;;;;;18.85;13.28;;;;;;;24.46;70.42;94751.38;1679103;84;22115;-61
2021/07/27 07:41:40;;;;;;;22.82;14.95;;;;;;;24.54;69.39;94744.61;1679064;84;21104;-63
2021/07/27 07:44:09;;;;;;;14.47;12.95;;;;;;;24.65;69.39;94739.44;1653968;84;22316;-59
2021/07/27 07:46:36;;;;;;;21.37;14.28;;;;;;;24.81;69.48;94738.38;1663319;84;21235;-60
2021/07/27 07:49:03;;;;;;;21.87;13.40;;;;;;;24.96;68.75;94741.42;1681496;84;21073;-57
2021/07/27 07:51:30;;;;;;;20.17;14.70;;;;;;;25.08;68.19;94746.95;1661444;84;21072;-60
2021/07/27 07:53:57;;;;;;;18.10;13.45;;;;;;;25.22;68.25;94735.80;1672079;84;22164;-60
2021/07/27 07:56:24;;;;;;;25.27;14.50;;;;;;;25.33;67.34;94735.59;1679290;84;21078;-60
2021/07/27 07:58:51;;;;;;;23.55;14.47;;;;;;;25.41;66.76;94741.42;1668449;84;21292;-64
2021/07/27 08:01:18;;;;;;;22.20;13.58;;;;;;;25.51;67.43;94738.92;1670655;84;21064;-61
2021/07/27 08:03:45;;;;;;;21.17;13.13;;;;;;;25.61;65.83;94735.73;1665290;84;21144;-66
2021/07/27 08:06:12;;;;;;;19.60;13.22;;;;;;;25.71;65.33;94733.33;1660077;84;21105;-62
2021/07/27 08:08:39;;;;;;;16.73;12.65;;;;;;;25.84;64.67;94732.55;1659212;84;21536;-69
2021/07/27 08:11:08;;;;;;;15.43;10.70;;;;;;;25.96;64.08;94733.19;1655943;84;22518;-67
2021/07/27 08:13:35;;;;;;;17.10;11.90;;;;;;;26.09;63.23;94731.06;1664899;84;21013;-64
2021/07/27 08:16:02;;;;;;;21.33;13.25;;;;;;;26.24;62.24;94724.80;1670992;84;21040;-61
2021/07/27 08:18:29;;;;;;;21.87;12.45;;;;;;;26.36;61.97;94721.19;1663928;84;21129;-61
2021/07/27 08:20:55;;;;;;;20.43;10.72;;;;;;;26.46;60.84;94730.66;1671817;84;21358;-59
2021/07/27 08:23:22;;;;;;;16.65;10.43;;;;;;;26.53;59.67;94720.11;1675234;84;21180;-61
2021/07/27 08:25:50;;;;;;;13.32;10.25;;;;;;;26.64;60.37;94717.69;1675640;84;21084;-59
2021/07/27 08:28:16;;;;;;;27.85;12.25;;;;;;;26.76;59.90;94711.19;1664642;84;21104;-59
2021/07/27 08:30:44;;;;;;;19.60;11.55;;;;;;;26.89;59.97;94712.48;1625405;86;21036;-66
2021/07/27 08:33:11;;;;;;;24.92;11.50;;;;;;;27.06;58.73;94717.69;1598895;87;21544;-61
2021/07/27 08:35:38;;;;;;;24.65;11.68;;;;;;;27.20;58.82;94707.83;1634760;86;21119;-63
2021/07/27 08:38:05;;;;;;;25.45;11.85;;;;;;;27.34;59.16;94704.95;1611366;86;21478;-67
2021/07/27 08:40:39;;;;;;;19.60;10.15;;;;;;;27.49;58.02;94709.28;1586797;87;21089;-63
2021/07/27 08:43:02;;;;;;;21.12;9.78;;;;;;;27.61;56.34;94702.73;1626995;85;21092;-59
2021/07/27 08:45:30;;;;;;;15.43;10.15;;;;;;;27.68;56.31;94702.02;1603903;87;21101;-61
2021/07/27 08:47:57;;;;;;;23.32;12.33;;;;;;;27.78;56.22;94703.01;1616836;86;21145;-61
2021/07/27 08:50:26;;;;;;;20.90;13.25;;;;;;;27.88;56.48;94701.91;1613526;86;21117;-61
2021/07/27 08:52:53;;;;;;;18.60;11.30;;;;;;;27.99;56.31;94691.67;1620488;86;22333;-60
2021/07/27 08:55:20;;;;;;;19.48;10.75;;;;;;;28.13;56.18;94692.25;1635755;85;21127;-60
2021/07/27 08:57:59;;;;;;;20.72;9.83;;;;;;;28.28;54.86;94695.87;1644635;85;21621;-60
2021/07/27 09:00:29;;;;;;;16.90;9.80;;;;;;;28.39;54.35;94689.13;1618877;87;21263;-60
2021/07/27 09:03:10;;;;;;;15.18;9.25;;;;;;;28.48;54.47;94682.23;1615275;87;20998;-61
2021/07/27 09:05:38;;;;;;;19.60;9.50;;;;;;;28.59;54.01;94681.10;1622303;87;21112;-63
2021/07/27 09:08:13;;;;;;;18.42;7.97;;;;;;;28.73;53.72;94688.83;1613199;87;21090;-60
2021/07/27 09:10:40;;;;;;;20.55;12.28;;;;;;;28.84;51.96;94686.27;1603164;87;21123;-63
2021/07/27 09:13:08;;;;;;;27.25;11.20;;;;;;;28.90;51.84;94678.34;1614069;87;21172;-64
2021/07/27 09:15:39;;;;;;;24.05;9.70;;;;;;;29.00;51.04;94681.47;1600802;88;21065;-61
2021/07/27 09:18:15;;;;;;;17.95;8.90;;;;;;;29.09;50.66;94677.27;1629162;86;21089;-64
2021/07/27 09:20:50;;;;;;;14.18;8.28;;;;;;;29.21;49.92;94678.38;1627328;88;21059;-65
2021/07/27 09:23:19;;;;;;;19.62;9.20;;;;;;;29.35;49.39;94681.83;1670046;84;21156;-61
2021/07/27 09:25:53;;;;;;;19.20;9.53;;;;;;;29.49;49.67;94676.73;1652033;84;21157;-64
2021/07/27 09:28:20;;;;;;;14.70;8.73;;;;;;;29.64;48.79;94673.84;1673347;84;20989;-61
2021/07/27 09:30:48;;;;;;;13.98;8.00;;;;;;;29.81;50.20;94678.94;1664747;83;21053;-65
2021/07/27 09:33:16;;;;;;;14.93;8.28;;;;;;;29.98;48.78;94679.78;1666645;84;21057;-63
2021/07/27 09:35:45;;;;;;;13.95;8.68;;;;;;;30.14;48.34;94674.81;1671501;84;20989;-63
2021/07/27 09:38:17;;;;;;;16.40;8.45;;;;;;;30.21;48.76;94676.19;1689427;83;21313;-66
2021/07/27 09:40:56;;;;;;;;;;;;;;;30.25;47.92;94674.34;1657144;84;21531;-64
2021/07/27 09:43:25;;;;;;;15.30;8.00;;;;;;;30.29;46.80;94681.14;1662110;84;20470;-64
2021/07/27 09:46:00;;;;;;;21.17;8.78;;;;;;;30.34;45.92;94675.89;1633986;86;21442;-60
2021/07/27 09:48:28;;;;;;;17.23;8.10;;;;;;;30.44;46.16;94681.03;1640559;85;21181;-63
2021/07/27 09:50:56;;;;;;;16.32;7.03;;;;;;;30.59;45.85;94687.28;1649172;86;22252;-64
2021/07/27 09:53:23;;;;;;;15.98;7.22;;;;;;;30.75;44.03;94675.23;1651975;86;21005;-65
2021/07/27 09:55:51;;;;;;;17.32;8.33;;;;;;;30.92;43.14;94680.19;1646846;86;21574;-64
2021/07/27 09:58:19;;;;;;;41.35;25.75;;;;;;;31.07;42.97;94673.67;1653450;85;21052;-64
2021/07/27 10:01:00;;;;;;;27.45;11.43;;;;;;;31.16;44.75;94680.16;1643328;85;22424;-64
2021/07/27 10:03:30;;;;;;;23.42;7.87;;;;;;;31.09;44.20;94671.00;1637146;86;21336;-64
2021/07/27 10:06:01;;;;;;;24.77;8.40;;;;;;;30.95;42.05;94665.57;1649323;84;22137;-66
2021/07/27 10:08:36;;;;;;;29.52;10.03;;;;;;;30.82;42.94;94665.87;1636405;85;21065;-65
2021/07/27 10:11:13;;;;;;;23.27;7.12;;;;;;;30.87;43.40;94659.19;1670247;84;21104;-65
2021/07/27 10:13:45;;;;;;;29.82;6.97;;;;;;;30.98;41.73;94668.66;1681478;84;21616;-67
2021/07/27 10:16:22;;;;;;;;;;;;;;;31.13;40.98;94660.67;1683238;84;21200;-63
2021/07/27 10:18:49;;;;;;;24.23;6.72;;;;;;;31.28;39.62;94659.09;1640103;86;20182;-66
2021/07/27 10:21:25;;;;;;;20.72;6.12;;;;;;;31.45;37.77;94662.67;1676922;84;21553;-66
2021/07/27 10:23:58;;;;;;;23.73;6.85;;;;;;;31.63;36.49;94655.63;1654947;84;21448;-64
2021/07/27 10:26:32;;;;;;;22.93;6.67;;;;;;;31.72;37.00;94659.25;1676593;84;21048;-65
2021/07/27 10:28:59;;;;;;;28.60;6.45;;;;;;;31.86;36.72;94654.70;1672121;84;21145;-64
2021/07/27 10:31:44;;;;;;;24.05;7.17;;;;;;;32.07;36.24;94652.88;1656336;85;21060;-64
2021/07/27 10:34:13;;;;;;;18.82;6.17;;;;;;;32.31;35.59;94656.92;1669631;84;22231;-62
2021/07/27 10:36:45;;;;;;;20.23;6.85;;;;;;;32.49;34.39;94659.78;1679291;84;21075;-64
2021/07/27 10:39:16;;;;;;;19.50;6.83;;;;;;;32.53;33.56;94657.23;1673040;84;21081;-63
2021/07/27 10:41:46;;;;;;;26.90;7.87;;;;;;;32.52;34.26;94660.02;1664622;84;21167;-62
2021/07/27 10:44:24;;;;;;;25.15;7.87;;;;;;;32.63;34.19;94648.06;1671007;84;21077;-63
2021/07/27 10:46:50;;;;;;;24.82;7.37;;;;;;;32.69;33.74;94659.95;1654553;84;21136;-64
2021/07/27 10:49:25;;;;;;;19.23;5.70;;;;;;;32.70;34.37;94657.19;1680843;83;21522;-66
2021/07/27 10:51:53;;;;;;;24.80;7.20;;;;;;;32.60;34.33;94656.39;1661762;84;21120;-65
2021/07/27 10:54:31;;;;;;;15.43;6.08;;;;;;;32.76;34.50;94656.98;1652084;85;21157;-62
2021/07/27 10:57:05;;;;;;;25.82;6.85;;;;;;;32.85;34.12;94636.98;1620526;87;21487;-64
2021/07/27 10:59:35;;;;;;;20.55;6.50;;;;;;;32.80;34.17;94650.85;1650182;86;21025;-65
2021/07/27 11:02:12;;;;;;;26.17;6.33;;;;;;;32.78;34.16;94651.44;1618933;87;21089;-66
2021/07/27 11:04:39;;;;;;;18.00;6.33;;;;;;;32.53;34.13;94655.81;1600361;87;20982;-63
2021/07/27 11:07:14;;;;;;;27.30;6.70;;;;;;;32.67;34.17;94668.33;1625014;87;21146;-67
2021/07/27 11:09:51;;;;;;;18.77;6.70;;;;;;;32.82;34.27;94669.53;1614445;87;21549;-64
2021/07/27 11:12:33;;;;;;;27.30;7.33;;;;;;;32.86;33.73;94669.84;1610796;87;21073;-64
2021/07/27 11:15:19;;;;;;;16.45;6.30;;;;;;;32.71;33.98;94668.66;1607654;87;21077;-65
2021/07/27 11:17:58;;;;;;;17.23;6.58;;;;;;;32.95;34.06;94664.84;1615751;87;21663;-70
2021/07/27 11:20:36;;;;;;;29.95;7.47;;;;;;;33.31;34.00;94667.64;1605833;87;21466;-73
2021/07/27 11:23:16;;;;;;;30.32;7.67;;;;;;;33.79;32.77;94661.27;1611736;87;21081;-67
2021/07/27 11:25:45;;;;;;;18.95;7.33;;;;;;;34.27;32.44;94666.33;1613551;87;22115;-78
2021/07/27 11:28:14;;;;;;;21.55;6.85;;;;;;;34.69;31.41;94679.36;1630237;85;21151;-68
2021/07/27 11:30:42;;;;;;;27.85;7.58;;;;;;;34.97;31.85;94675.63;1609282;88;20918;-65
2021/07/27 11:33:19;;;;;;;31.05;7.80;;;;;;;35.28;31.07;94670.63;1616481;87;21145;-62
2021/07/27 11:35:51;;;;;;;19.02;6.17;;;;;;;35.46;30.10;94679.02;1605471;88;21660;-68
2021/07/27 11:38:31;;;;;;;19.48;6.72;;;;;;;35.50;30.51;94679.31;1610977;87;21441;-64
2021/07/27 11:41:06;;;;;;;23.25;7.05;;;;;;;35.55;29.73;94688.23;1620650;87;21135;-63
2021/07/27 11:43:36;;;;;;;26.60;7.53;;;;;;;35.59;30.57;94667.02;1619651;87;22214;-66
2021/07/27 11:46:09;;;;;;;24.77;7.53;;;;;;;35.68;29.69;94664.05;1616451;87;22594;-59
2021/07/27 11:48:38;;;;;;;17.50;6.05;;;;;;;35.82;29.54;94668.58;1614990;87;21015;-63